createdAt,value
2018-07-15T00:05:16.108Z,4.98
2018-07-15T00:11:11.134Z,4.65
2018-07-15T00:17:06.119Z,4.47
2018-07-15T00:23:01.249Z,4.7
2018-07-15T00:28:56.130Z,4.33
2018-07-15T00:34:51.134Z,4.61
2018-07-15T00:40:46.170Z,5.17
2018-07-15T00:46:41.121Z,4.57
2018-07-15T00:52:36.173Z,4.3
2018-07-15T00:58:31.168Z,4.92
2018-07-15T01:04:26.209Z,4.38
2018-07-15T01:10:21.179Z,3.91
2018-07-15T01:16:16.192Z,3.87
2018-07-15T01:22:11.180Z,4.14
2018-07-15T01:28:06.220Z,4.63
2018-07-15T01:34:01.222Z,3.97
2018-07-15T01:39:56.197Z,4.1
2018-07-15T01:45:51.222Z,4.65
2018-07-15T01:51:46.238Z,4.33
2018-07-15T01:57:41.284Z,4.46
2018-07-15T02:03:36.209Z,4.44
2018-07-15T02:09:31.259Z,4.76
2018-07-15T02:15:26.249Z,5.11
2018-07-15T02:21:21.264Z,5.04
2018-07-15T02:27:16.220Z,4.84
2018-07-15T02:33:11.228Z,5.53
2018-07-15T02:39:06.244Z,5.03
2018-07-15T02:45:01.247Z,5.51
2018-07-15T02:50:56.245Z,5.14
2018-07-15T02:56:51.272Z,5.82
2018-07-15T03:02:46.243Z,5.78
2018-07-15T03:08:41.265Z,5.4
2018-07-15T03:14:36.301Z,5.48
2018-07-15T03:20:31.281Z,5.27
2018-07-15T03:26:26.331Z,5.68
2018-07-15T03:32:21.311Z,5.8
2018-07-15T03:38:16.293Z,6.04
2018-07-15T03:44:11.311Z,6.71
2018-07-15T03:50:06.326Z,6.17
2018-07-15T03:56:01.290Z,6.38
2018-07-15T04:01:56.343Z,5.92
2018-07-15T04:07:51.299Z,7.5
2018-07-15T04:13:46.305Z,6.18
2018-07-15T04:19:41.302Z,6.55
2018-07-15T04:25:36.339Z,11.65
2018-07-15T04:31:31.345Z,6.7
2018-07-15T04:37:26.316Z,6.25
2018-07-15T04:43:21.324Z,6.46
2018-07-15T04:49:16.343Z,6.71
2018-07-15T04:55:11.344Z,6.9
2018-07-15T05:01:06.338Z,6.51
2018-07-15T05:07:01.351Z,6.87
2018-07-15T05:12:56.404Z,7.25
2018-07-15T05:18:51.373Z,6.98
2018-07-15T05:24:46.382Z,7.02
2018-07-15T05:30:41.358Z,7.18
2018-07-15T05:36:36.440Z,7.71
2018-07-15T05:42:31.406Z,7.58
2018-07-15T05:48:26.423Z,7.12
2018-07-15T05:54:21.428Z,7.73
2018-07-15T06:00:16.362Z,7.58
2018-07-15T06:06:11.370Z,7.25
2018-07-15T06:12:06.409Z,6.97
2018-07-15T06:18:01.465Z,7.5
2018-07-15T06:23:56.422Z,7.63
2018-07-15T06:29:51.503Z,7.6
2018-07-15T06:35:46.454Z,7.21
2018-07-15T06:41:41.419Z,7.36
2018-07-15T06:47:36.430Z,7.5
2018-07-15T06:53:31.438Z,7.48
2018-07-15T06:59:26.435Z,7.85
2018-07-15T07:05:21.474Z,7.34
2018-07-15T07:11:16.476Z,7.5
2018-07-15T07:17:11.502Z,7.23
2018-07-15T07:23:06.454Z,7.35
2018-07-15T07:29:01.490Z,8.1
2018-07-15T07:34:56.511Z,6.19
2018-07-15T07:40:51.461Z,7.13
2018-07-15T07:46:46.478Z,6.53
2018-07-15T07:52:41.493Z,6.25
2018-07-15T07:58:36.503Z,6.46
2018-07-15T08:04:31.534Z,7.27
2018-07-15T08:10:26.477Z,7.19
2018-07-15T08:16:21.525Z,5.79
2018-07-15T08:22:16.526Z,6.77
2018-07-15T08:28:11.532Z,5.95
2018-07-15T08:34:06.547Z,5.91
2018-07-15T08:40:01.598Z,5.52
2018-07-15T08:45:56.524Z,5.31
2018-07-15T08:51:51.577Z,5.28
2018-07-15T08:57:46.537Z,5.23
2018-07-15T09:03:41.562Z,5.7
2018-07-15T09:09:36.539Z,4.85
2018-07-15T09:15:31.579Z,4.23
2018-07-15T09:21:26.608Z,4.66
2018-07-15T09:27:21.561Z,4.19
2018-07-15T09:33:16.702Z,4.09
2018-07-15T09:39:11.552Z,3.51
2018-07-15T09:45:06.547Z,3.82
2018-07-15T09:51:01.591Z,3.01
2018-07-15T09:56:56.581Z,3.22
2018-07-15T10:02:51.608Z,3.29
2018-07-15T10:08:46.569Z,3.5
2018-07-15T10:14:41.635Z,2.89
2018-07-15T10:20:36.607Z,3.06
2018-07-15T10:26:31.681Z,2.73
2018-07-15T10:32:26.626Z,2.92
2018-07-15T10:38:23.674Z,2.64
2018-07-15T10:44:16.636Z,2.65
2018-07-15T10:50:11.625Z,2.49
2018-07-15T10:56:06.701Z,2.61
2018-07-15T11:02:01.640Z,2.73
2018-07-15T11:07:56.632Z,2.34
2018-07-15T11:13:51.658Z,2.58
2018-07-15T11:19:46.651Z,2.8
2018-07-15T11:25:41.666Z,2.73
2018-07-15T11:31:36.704Z,2.56
2018-07-15T11:37:31.654Z,2.23
2018-07-15T11:43:26.692Z,2.5
2018-07-15T11:49:21.717Z,2.41
2018-07-15T11:55:16.715Z,2.34
2018-07-15T12:01:11.709Z,2.62
2018-07-15T12:07:06.686Z,2.22
2018-07-15T12:13:01.699Z,2.19
2018-07-15T12:18:56.695Z,2.66
2018-07-15T12:24:51.721Z,2.19
2018-07-15T12:30:46.759Z,2.2
2018-07-15T12:36:41.768Z,2.02
2018-07-15T12:42:36.773Z,2.15
2018-07-15T12:48:31.766Z,1.95
2018-07-15T12:54:26.747Z,1.9
2018-07-15T13:00:21.751Z,1.62
2018-07-15T13:06:16.819Z,2.05
2018-07-15T13:12:11.777Z,1.6
2018-07-15T13:18:06.754Z,1.91
2018-07-15T13:24:01.755Z,1.79
2018-07-15T13:29:56.820Z,1.59
2018-07-15T13:35:51.777Z,1.8
2018-07-15T13:41:46.784Z,1.62
2018-07-15T13:47:41.780Z,1.95
2018-07-15T13:53:36.841Z,1.8
2018-07-15T13:59:31.786Z,1.96
2018-07-15T14:05:26.793Z,2
2018-07-15T14:11:21.836Z,2.24
2018-07-15T14:17:16.820Z,2.05
2018-07-15T14:23:11.828Z,2.39
2018-07-15T14:29:06.840Z,2.59
2018-07-15T14:35:01.829Z,2.55
2018-07-15T14:40:56.844Z,2.94
2018-07-15T14:46:51.856Z,2.89
2018-07-15T14:52:46.845Z,2.93
2018-07-15T14:58:41.880Z,3.39
2018-07-15T15:04:36.869Z,3.43
2018-07-15T15:10:31.903Z,3.8
2018-07-15T15:16:26.888Z,3.89
2018-07-15T15:22:21.912Z,4.59
2018-07-15T15:28:16.883Z,4.32
2018-07-15T15:34:11.876Z,4.58
2018-07-15T15:40:06.910Z,4.57
2018-07-15T15:46:01.946Z,4.19
2018-07-15T15:51:56.917Z,4.6
2018-07-15T15:57:51.966Z,4.58
2018-07-15T16:03:46.937Z,4.83
2018-07-15T16:09:41.996Z,5
2018-07-15T16:15:36.942Z,4.72
2018-07-15T16:21:31.911Z,2.42
2018-07-15T16:27:26.961Z,2.35
2018-07-15T16:33:21.940Z,2.75
2018-07-15T16:39:16.942Z,2.64
2018-07-15T16:45:11.949Z,2.5
2018-07-15T16:51:06.962Z,2.72
2018-07-15T16:57:02.029Z,2.39
2018-07-15T17:02:56.989Z,2.75
2018-07-15T17:08:51.981Z,2.61
2018-07-15T17:14:47.044Z,2.9
2018-07-15T17:20:42.077Z,3.3
2018-07-15T17:26:37.018Z,2.71
2018-07-15T17:32:32.096Z,2.69
2018-07-15T17:38:27.072Z,3.01
2018-07-15T17:44:21.998Z,3.45
2018-07-15T17:50:17.031Z,3.43
2018-07-15T17:56:12.067Z,3.46
2018-07-15T18:02:07.103Z,3.85
2018-07-15T18:08:02.041Z,3.52
2018-07-15T18:13:57.039Z,3.5
2018-07-15T18:19:52.168Z,5.19
2018-07-15T18:25:47.090Z,3.46
2018-07-15T18:31:42.059Z,3.94
2018-07-15T18:37:37.056Z,21.7
2018-07-15T18:43:32.155Z,6.11
2018-07-15T18:49:27.100Z,3.94
2018-07-15T18:55:22.112Z,3.97
2018-07-15T19:01:17.156Z,8.28
2018-07-15T19:07:12.131Z,4.87
2018-07-15T19:13:07.068Z,4.25
2018-07-15T19:19:02.125Z,4.33
2018-07-15T19:24:57.126Z,4.51
2018-07-15T19:30:52.119Z,7.42
2018-07-15T19:36:47.137Z,27.52
2018-07-15T19:42:42.203Z,33.18
2018-07-15T19:48:37.141Z,38.8
2018-07-15T19:54:32.120Z,6.03
2018-07-15T20:00:27.127Z,6.14
2018-07-15T20:06:22.194Z,7.3
2018-07-15T20:12:17.152Z,6.26
2018-07-15T20:18:12.133Z,7.96
2018-07-15T20:24:07.222Z,7.03
2018-07-15T20:30:02.154Z,7.08
2018-07-15T20:35:57.200Z,7.2
2018-07-15T20:41:52.297Z,6.43
2018-07-15T20:47:47.223Z,7.07
2018-07-15T20:53:42.189Z,6.1
2018-07-15T20:59:37.208Z,17.27
2018-07-15T21:05:32.170Z,6.49
2018-07-15T21:11:27.173Z,6.29
2018-07-15T21:17:22.177Z,6.67
2018-07-15T21:23:17.203Z,6.03
2018-07-15T21:29:12.234Z,6.48
2018-07-15T21:35:07.192Z,6.72
2018-07-15T21:41:02.272Z,6.22
2018-07-15T21:46:57.268Z,6.63
2018-07-15T21:52:52.298Z,6.54
2018-07-15T21:58:47.280Z,6.57
2018-07-15T22:04:42.290Z,6.04
2018-07-15T22:10:37.303Z,6.67
2018-07-15T22:16:32.245Z,6.51
2018-07-15T22:22:27.267Z,6.73
2018-07-15T22:28:22.234Z,6.4
2018-07-15T22:34:17.312Z,6.27
2018-07-15T22:40:12.298Z,6.62
2018-07-15T22:46:07.260Z,6.3
2018-07-15T22:52:02.247Z,7.39
2018-07-15T22:57:57.289Z,7.13
2018-07-15T23:03:52.287Z,7.96
2018-07-15T23:09:47.315Z,7.79
2018-07-15T23:15:42.318Z,8.14
2018-07-15T23:21:37.419Z,8.2
2018-07-15T23:27:32.368Z,8.57
2018-07-15T23:33:27.284Z,8.9
2018-07-15T23:39:22.321Z,8.35
2018-07-15T23:45:17.322Z,8.68
2018-07-15T23:51:12.306Z,9.22
2018-07-15T23:57:07.390Z,10.56
